sensor_id;sensor_type;location;lat;lon;timestamp;temperature;humidity
41220;DHT22;26951;47.338;9.196;2022-07-04T00:00:15;17.60;71.50
41220;DHT22;26951;47.338;9.196;2022-07-04T00:03:00;17.50;71.00
41220;DHT22;26951;47.338;9.196;2022-07-04T00:05:44;17.50;71.20
41220;DHT22;26951;47.338;9.196;2022-07-04T00:08:28;17.40;72.10
41220;DHT22;26951;47.338;9.196;2022-07-04T00:11:12;17.40;72.50
41220;DHT22;26951;47.338;9.196;2022-07-04T00:13:56;17.40;71.90
41220;DHT22;26951;47.338;9.196;2022-07-04T00:16:40;17.40;71.90
41220;DHT22;26951;47.338;9.196;2022-07-04T00:19:25;17.30;71.50
41220;DHT22;26951;47.338;9.196;2022-07-04T00:22:09;17.30;72.30
41220;DHT22;26951;47.338;9.196;2022-07-04T00:24:54;17.30;73.10
41220;DHT22;26951;47.338;9.196;2022-07-04T00:27:38;17.30;72.10
41220;DHT22;26951;47.338;9.196;2022-07-04T00:30:22;17.30;71.80
41220;DHT22;26951;47.338;9.196;2022-07-04T00:33:10;17.30;71.50
41220;DHT22;26951;47.338;9.196;2022-07-04T00:35:55;17.30;71.30
41220;DHT22;26951;47.338;9.196;2022-07-04T00:38:39;17.30;71.40
41220;DHT22;26951;47.338;9.196;2022-07-04T00:41:23;17.30;70.90
41220;DHT22;26951;47.338;9.196;2022-07-04T00:44:10;17.20;71.10
41220;DHT22;26951;47.338;9.196;2022-07-04T00:46:54;17.20;70.70
41220;DHT22;26951;47.338;9.196;2022-07-04T00:49:38;17.10;71.10
41220;DHT22;26951;47.338;9.196;2022-07-04T00:52:24;17.00;71.40
41220;DHT22;26951;47.338;9.196;2022-07-04T00:55:09;17.00;71.50
41220;DHT22;26951;47.338;9.196;2022-07-04T00:57:53;17.00;71.00
41220;DHT22;26951;47.338;9.196;2022-07-04T01:04:18;16.90;71.00
41220;DHT22;26951;47.338;9.196;2022-07-04T01:07:04;16.80;71.30
41220;DHT22;26951;47.338;9.196;2022-07-04T01:09:48;16.70;71.70
41220;DHT22;26951;47.338;9.196;2022-07-04T01:12:34;16.70;72.10
41220;DHT22;26951;47.338;9.196;2022-07-04T01:15:18;16.60;74.30
41220;DHT22;26951;47.338;9.196;2022-07-04T01:18:02;16.50;74.50
41220;DHT22;26951;47.338;9.196;2022-07-04T01:20:46;16.40;74.40
41220;DHT22;26951;47.338;9.196;2022-07-04T01:23:30;16.40;74.60
41220;DHT22;26951;47.338;9.196;2022-07-04T01:26:14;16.40;74.40
41220;DHT22;26951;47.338;9.196;2022-07-04T01:28:59;16.30;73.90
41220;DHT22;26951;47.338;9.196;2022-07-04T01:31:43;16.30;73.60
41220;DHT22;26951;47.338;9.196;2022-07-04T01:34:27;16.30;73.80
41220;DHT22;26951;47.338;9.196;2022-07-04T01:37:12;16.30;72.60
41220;DHT22;26951;47.338;9.196;2022-07-04T01:39:56;16.30;71.60
41220;DHT22;26951;47.338;9.196;2022-07-04T01:42:40;16.30;71.90
41220;DHT22;26951;47.338;9.196;2022-07-04T01:45:25;16.20;72.90
41220;DHT22;26951;47.338;9.196;2022-07-04T01:48:10;16.20;72.80
41220;DHT22;26951;47.338;9.196;2022-07-04T01:50:55;16.10;73.40
41220;DHT22;26951;47.338;9.196;2022-07-04T01:53:39;16.00;74.00
41220;DHT22;26951;47.338;9.196;2022-07-04T01:56:23;16.00;74.40
41220;DHT22;26951;47.338;9.196;2022-07-04T01:59:08;16.00;73.50
41220;DHT22;26951;47.338;9.196;2022-07-04T02:01:52;16.00;73.90
41220;DHT22;26951;47.338;9.196;2022-07-04T02:04:37;16.00;73.90
41220;DHT22;26951;47.338;9.196;2022-07-04T02:07:21;16.00;73.90
41220;DHT22;26951;47.338;9.196;2022-07-04T02:10:05;16.10;74.00
41220;DHT22;26951;47.338;9.196;2022-07-04T02:12:50;16.00;74.50
41220;DHT22;26951;47.338;9.196;2022-07-04T02:15:47;16.00;74.00
41220;DHT22;26951;47.338;9.196;2022-07-04T02:18:31;16.00;74.80
41220;DHT22;26951;47.338;9.196;2022-07-04T02:21:15;16.00;74.90
41220;DHT22;26951;47.338;9.196;2022-07-04T02:23:59;16.00;75.30
41220;DHT22;26951;47.338;9.196;2022-07-04T02:26:43;16.00;76.30
41220;DHT22;26951;47.338;9.196;2022-07-04T02:29:28;16.00;75.90
41220;DHT22;26951;47.338;9.196;2022-07-04T02:32:12;16.00;75.20
41220;DHT22;26951;47.338;9.196;2022-07-04T02:34:56;16.10;76.00
41220;DHT22;26951;47.338;9.196;2022-07-04T02:37:40;16.10;75.90
41220;DHT22;26951;47.338;9.196;2022-07-04T02:40:25;16.10;76.00
41220;DHT22;26951;47.338;9.196;2022-07-04T02:43:09;16.10;77.40
41220;DHT22;26951;47.338;9.196;2022-07-04T02:45:53;16.10;77.30
41220;DHT22;26951;47.338;9.196;2022-07-04T02:48:37;16.10;77.90
41220;DHT22;26951;47.338;9.196;2022-07-04T02:51:21;16.10;77.80
41220;DHT22;26951;47.338;9.196;2022-07-04T02:54:05;16.10;77.50
41220;DHT22;26951;47.338;9.196;2022-07-04T02:56:50;16.20;77.40
41220;DHT22;26951;47.338;9.196;2022-07-04T02:59:34;16.20;76.90
41220;DHT22;26951;47.338;9.196;2022-07-04T03:02:35;16.30;76.60
41220;DHT22;26951;47.338;9.196;2022-07-04T03:05:19;16.30;76.80
41220;DHT22;26951;47.338;9.196;2022-07-04T03:08:03;16.30;76.80
41220;DHT22;26951;47.338;9.196;2022-07-04T03:10:49;16.30;77.70
41220;DHT22;26951;47.338;9.196;2022-07-04T03:13:36;16.30;78.30
41220;DHT22;26951;47.338;9.196;2022-07-04T03:16:20;16.30;79.50
41220;DHT22;26951;47.338;9.196;2022-07-04T03:19:04;16.30;80.40
41220;DHT22;26951;47.338;9.196;2022-07-04T03:21:48;16.30;80.80
41220;DHT22;26951;47.338;9.196;2022-07-04T03:24:32;16.40;80.90
41220;DHT22;26951;47.338;9.196;2022-07-04T03:27:17;16.40;80.80
41220;DHT22;26951;47.338;9.196;2022-07-04T03:30:01;16.30;81.10
41220;DHT22;26951;47.338;9.196;2022-07-04T03:32:45;16.30;82.10
41220;DHT22;26951;47.338;9.196;2022-07-04T03:35:30;16.30;81.90
41220;DHT22;26951;47.338;9.196;2022-07-04T03:38:14;16.40;80.90
41220;DHT22;26951;47.338;9.196;2022-07-04T03:40:58;16.40;81.60
41220;DHT22;26951;47.338;9.196;2022-07-04T03:43:43;16.40;81.20
41220;DHT22;26951;47.338;9.196;2022-07-04T03:46:27;16.40;81.90
41220;DHT22;26951;47.338;9.196;2022-07-04T03:49:11;16.50;81.50
41220;DHT22;26951;47.338;9.196;2022-07-04T03:51:55;16.50;82.00
41220;DHT22;26951;47.338;9.196;2022-07-04T03:54:39;16.50;83.80
41220;DHT22;26951;47.338;9.196;2022-07-04T03:57:23;16.60;85.00
41220;DHT22;26951;47.338;9.196;2022-07-04T04:00:08;16.60;84.80
41220;DHT22;26951;47.338;9.196;2022-07-04T04:02:53;16.60;85.40
41220;DHT22;26951;47.338;9.196;2022-07-04T04:05:38;16.60;85.10
41220;DHT22;26951;47.338;9.196;2022-07-04T04:08:22;16.70;85.30
41220;DHT22;26951;47.338;9.196;2022-07-04T04:11:06;16.70;85.60
41220;DHT22;26951;47.338;9.196;2022-07-04T04:13:50;16.70;84.90
41220;DHT22;26951;47.338;9.196;2022-07-04T04:16:35;16.70;84.30
41220;DHT22;26951;47.338;9.196;2022-07-04T04:19:19;16.80;84.90
41220;DHT22;26951;47.338;9.196;2022-07-04T04:22:03;16.80;84.60
41220;DHT22;26951;47.338;9.196;2022-07-04T04:24:48;16.80;84.10
41220;DHT22;26951;47.338;9.196;2022-07-04T04:27:32;16.80;84.50
41220;DHT22;26951;47.338;9.196;2022-07-04T04:30:16;16.90;87.00
41220;DHT22;26951;47.338;9.196;2022-07-04T04:33:00;17.00;86.80
41220;DHT22;26951;47.338;9.196;2022-07-04T04:35:44;17.00;86.20
41220;DHT22;26951;47.338;9.196;2022-07-04T04:38:28;17.00;86.10
41220;DHT22;26951;47.338;9.196;2022-07-04T04:41:12;17.10;86.50
41220;DHT22;26951;47.338;9.196;2022-07-04T04:43:57;17.00;85.60
41220;DHT22;26951;47.338;9.196;2022-07-04T04:46:41;17.10;84.70
41220;DHT22;26951;47.338;9.196;2022-07-04T04:49:25;17.10;84.10
41220;DHT22;26951;47.338;9.196;2022-07-04T04:52:09;17.10;84.20
41220;DHT22;26951;47.338;9.196;2022-07-04T04:54:53;17.10;84.00
41220;DHT22;26951;47.338;9.196;2022-07-04T04:57:38;17.10;83.30
41220;DHT22;26951;47.338;9.196;2022-07-04T05:00:22;17.10;84.40
41220;DHT22;26951;47.338;9.196;2022-07-04T05:03:06;17.10;84.10
41220;DHT22;26951;47.338;9.196;2022-07-04T05:05:50;17.10;84.10
41220;DHT22;26951;47.338;9.196;2022-07-04T05:08:35;17.10;84.20
41220;DHT22;26951;47.338;9.196;2022-07-04T05:11:19;17.10;84.30
41220;DHT22;26951;47.338;9.196;2022-07-04T05:14:03;17.20;85.10
41220;DHT22;26951;47.338;9.196;2022-07-04T05:16:47;17.20;85.40
41220;DHT22;26951;47.338;9.196;2022-07-04T05:19:31;17.20;84.50
41220;DHT22;26951;47.338;9.196;2022-07-04T05:22:15;17.20;84.20
41220;DHT22;26951;47.338;9.196;2022-07-04T05:25:00;17.20;83.50
41220;DHT22;26951;47.338;9.196;2022-07-04T05:27:43;17.20;83.80
41220;DHT22;26951;47.338;9.196;2022-07-04T05:30:28;17.20;83.70
41220;DHT22;26951;47.338;9.196;2022-07-04T05:33:12;17.20;83.30
41220;DHT22;26951;47.338;9.196;2022-07-04T05:35:56;17.20;83.70
41220;DHT22;26951;47.338;9.196;2022-07-04T05:38:40;17.20;85.10
41220;DHT22;26951;47.338;9.196;2022-07-04T05:41:24;17.20;84.90
41220;DHT22;26951;47.338;9.196;2022-07-04T05:44:09;17.20;85.10
41220;DHT22;26951;47.338;9.196;2022-07-04T05:46:53;17.20;84.00
41220;DHT22;26951;47.338;9.196;2022-07-04T05:49:37;17.20;84.00
41220;DHT22;26951;47.338;9.196;2022-07-04T05:52:21;17.20;84.30
41220;DHT22;26951;47.338;9.196;2022-07-04T05:55:05;17.20;84.40
41220;DHT22;26951;47.338;9.196;2022-07-04T05:57:50;17.20;84.50
41220;DHT22;26951;47.338;9.196;2022-07-04T06:00:35;17.20;84.10
41220;DHT22;26951;47.338;9.196;2022-07-04T06:03:19;17.30;84.40
41220;DHT22;26951;47.338;9.196;2022-07-04T06:06:04;17.20;83.90
41220;DHT22;26951;47.338;9.196;2022-07-04T06:08:48;17.20;85.00
41220;DHT22;26951;47.338;9.196;2022-07-04T06:11:32;17.20;84.10
41220;DHT22;26951;47.338;9.196;2022-07-04T06:14:17;17.30;84.70
41220;DHT22;26951;47.338;9.196;2022-07-04T06:17:01;17.20;86.00
41220;DHT22;26951;47.338;9.196;2022-07-04T06:19:45;17.30;85.00
41220;DHT22;26951;47.338;9.196;2022-07-04T06:22:48;17.30;84.80
41220;DHT22;26951;47.338;9.196;2022-07-04T06:25:33;17.30;84.70
41220;DHT22;26951;47.338;9.196;2022-07-04T06:28:18;17.30;84.90
41220;DHT22;26951;47.338;9.196;2022-07-04T06:31:02;17.30;84.90
41220;DHT22;26951;47.338;9.196;2022-07-04T06:33:46;17.30;85.20
41220;DHT22;26951;47.338;9.196;2022-07-04T06:36:49;17.30;85.30
41220;DHT22;26951;47.338;9.196;2022-07-04T06:39:33;17.40;86.80
41220;DHT22;26951;47.338;9.196;2022-07-04T06:42:17;17.40;86.60
41220;DHT22;26951;47.338;9.196;2022-07-04T06:45:02;17.40;86.80
41220;DHT22;26951;47.338;9.196;2022-07-04T06:47:46;17.40;87.30
41220;DHT22;26951;47.338;9.196;2022-07-04T06:50:30;17.50;87.40
41220;DHT22;26951;47.338;9.196;2022-07-04T06:53:17;17.50;87.40
41220;DHT22;26951;47.338;9.196;2022-07-04T06:56:01;17.70;87.60
41220;DHT22;26951;47.338;9.196;2022-07-04T06:58:46;17.80;87.60
41220;DHT22;26951;47.338;9.196;2022-07-04T07:01:30;17.90;88.80
41220;DHT22;26951;47.338;9.196;2022-07-04T07:04:14;17.90;88.20
41220;DHT22;26951;47.338;9.196;2022-07-04T07:06:58;18.00;87.20
41220;DHT22;26951;47.338;9.196;2022-07-04T07:09:42;18.00;86.60
41220;DHT22;26951;47.338;9.196;2022-07-04T07:12:26;18.10;86.30
41220;DHT22;26951;47.338;9.196;2022-07-04T07:15:11;18.10;85.80
41220;DHT22;26951;47.338;9.196;2022-07-04T07:17:55;18.20;84.90
41220;DHT22;26951;47.338;9.196;2022-07-04T07:20:39;18.20;85.90
41220;DHT22;26951;47.338;9.196;2022-07-04T07:23:23;18.30;86.40
41220;DHT22;26951;47.338;9.196;2022-07-04T07:26:08;18.40;86.80
41220;DHT22;26951;47.338;9.196;2022-07-04T07:28:52;18.50;85.90
41220;DHT22;26951;47.338;9.196;2022-07-04T07:31:36;18.60;85.80
41220;DHT22;26951;47.338;9.196;2022-07-04T07:34:21;18.70;86.60
41220;DHT22;26951;47.338;9.196;2022-07-04T07:37:05;18.80;88.50
41220;DHT22;26951;47.338;9.196;2022-07-04T07:39:50;19.10;91.40
41220;DHT22;26951;47.338;9.196;2022-07-04T07:42:34;19.30;90.80
41220;DHT22;26951;47.338;9.196;2022-07-04T07:45:18;19.50;90.50
41220;DHT22;26951;47.338;9.196;2022-07-04T07:48:03;19.60;85.60
41220;DHT22;26951;47.338;9.196;2022-07-04T07:50:47;19.80;80.70
41220;DHT22;26951;47.338;9.196;2022-07-04T07:53:31;19.90;77.60
41220;DHT22;26951;47.338;9.196;2022-07-04T07:56:15;20.00;79.90
41220;DHT22;26951;47.338;9.196;2022-07-04T07:58:59;20.10;82.30
41220;DHT22;26951;47.338;9.196;2022-07-04T08:01:43;20.20;82.30
41220;DHT22;26951;47.338;9.196;2022-07-04T08:04:28;20.20;80.90
41220;DHT22;26951;47.338;9.196;2022-07-04T08:07:25;20.20;78.90
41220;DHT22;26951;47.338;9.196;2022-07-04T08:10:09;20.20;78.20
41220;DHT22;26951;47.338;9.196;2022-07-04T08:12:53;20.20;78.20
41220;DHT22;26951;47.338;9.196;2022-07-04T08:15:40;20.20;74.80
41220;DHT22;26951;47.338;9.196;2022-07-04T08:18:24;20.10;67.20
41220;DHT22;26951;47.338;9.196;2022-07-04T08:21:08;20.00;65.70
41220;DHT22;26951;47.338;9.196;2022-07-04T08:23:53;19.90;66.90
41220;DHT22;26951;47.338;9.196;2022-07-04T08:26:37;19.80;67.90
41220;DHT22;26951;47.338;9.196;2022-07-04T08:29:21;19.70;68.90
41220;DHT22;26951;47.338;9.196;2022-07-04T08:32:06;19.60;70.40
41220;DHT22;26951;47.338;9.196;2022-07-04T08:34:53;19.60;72.50
41220;DHT22;26951;47.338;9.196;2022-07-04T08:37:38;19.60;74.50
41220;DHT22;26951;47.338;9.196;2022-07-04T08:40:29;19.50;74.40
41220;DHT22;26951;47.338;9.196;2022-07-04T08:43:14;19.50;74.30
41220;DHT22;26951;47.338;9.196;2022-07-04T08:45:59;19.50;73.70
41220;DHT22;26951;47.338;9.196;2022-07-04T08:48:51;19.50;73.10
41220;DHT22;26951;47.338;9.196;2022-07-04T08:51:52;19.50;72.40
41220;DHT22;26951;47.338;9.196;2022-07-04T08:54:39;19.40;72.20
41220;DHT22;26951;47.338;9.196;2022-07-04T08:57:43;19.40;73.80
41220;DHT22;26951;47.338;9.196;2022-07-04T09:00:46;19.40;73.10
41220;DHT22;26951;47.338;9.196;2022-07-04T09:03:31;19.50;75.30
41220;DHT22;26951;47.338;9.196;2022-07-04T09:06:16;19.50;76.30
41220;DHT22;26951;47.338;9.196;2022-07-04T09:09:00;19.60;74.60
41220;DHT22;26951;47.338;9.196;2022-07-04T09:11:44;19.70;74.60
41220;DHT22;26951;47.338;9.196;2022-07-04T09:14:29;19.70;75.60
41220;DHT22;26951;47.338;9.196;2022-07-04T09:17:13;19.80;76.70
41220;DHT22;26951;47.338;9.196;2022-07-04T09:23:00;19.90;74.50
41220;DHT22;26951;47.338;9.196;2022-07-04T09:25:45;19.90;74.10
41220;DHT22;26951;47.338;9.196;2022-07-04T09:28:29;19.90;73.10
41220;DHT22;26951;47.338;9.196;2022-07-04T09:34:03;20.10;71.70
41220;DHT22;26951;47.338;9.196;2022-07-04T09:36:51;20.10;72.70
41220;DHT22;26951;47.338;9.196;2022-07-04T09:39:45;20.20;69.90
41220;DHT22;26951;47.338;9.196;2022-07-04T09:42:36;20.30;73.00
41220;DHT22;26951;47.338;9.196;2022-07-04T09:45:21;20.60;79.40
41220;DHT22;26951;47.338;9.196;2022-07-04T09:48:08;20.90;78.90
41220;DHT22;26951;47.338;9.196;2022-07-04T09:50:52;21.30;80.50
41220;DHT22;26951;47.338;9.196;2022-07-04T09:53:36;21.60;77.40
41220;DHT22;26951;47.338;9.196;2022-07-04T09:56:48;22.00;72.80
41220;DHT22;26951;47.338;9.196;2022-07-04T09:59:32;22.30;71.30
41220;DHT22;26951;47.338;9.196;2022-07-04T10:02:18;22.50;70.30
41220;DHT22;26951;47.338;9.196;2022-07-04T10:05:07;22.70;68.70
41220;DHT22;26951;47.338;9.196;2022-07-04T10:07:54;22.90;68.90
41220;DHT22;26951;47.338;9.196;2022-07-04T10:10:39;23.10;69.50
41220;DHT22;26951;47.338;9.196;2022-07-04T10:13:28;23.30;66.20
41220;DHT22;26951;47.338;9.196;2022-07-04T10:16:15;23.30;62.80
41220;DHT22;26951;47.338;9.196;2022-07-04T10:19:01;23.40;64.50
41220;DHT22;26951;47.338;9.196;2022-07-04T10:21:46;23.60;66.00
41220;DHT22;26951;47.338;9.196;2022-07-04T10:24:30;23.80;65.90
41220;DHT22;26951;47.338;9.196;2022-07-04T10:27:15;24.00;63.10
41220;DHT22;26951;47.338;9.196;2022-07-04T10:30:00;24.30;64.30
41220;DHT22;26951;47.338;9.196;2022-07-04T10:32:46;24.50;60.30
41220;DHT22;26951;47.338;9.196;2022-07-04T10:35:52;24.60;58.90
41220;DHT22;26951;47.338;9.196;2022-07-04T10:39:03;24.60;59.30
41220;DHT22;26951;47.338;9.196;2022-07-04T10:41:58;24.70;55.00
41220;DHT22;26951;47.338;9.196;2022-07-04T10:44:42;24.80;56.90
41220;DHT22;26951;47.338;9.196;2022-07-04T10:47:27;24.90;55.80
41220;DHT22;26951;47.338;9.196;2022-07-04T10:50:27;24.90;53.40
41220;DHT22;26951;47.338;9.196;2022-07-04T10:53:12;24.90;53.40
41220;DHT22;26951;47.338;9.196;2022-07-04T10:59:06;25.00;55.00
41220;DHT22;26951;47.338;9.196;2022-07-04T11:10:29;25.70;56.00
41220;DHT22;26951;47.338;9.196;2022-07-04T11:13:16;25.80;55.50
41220;DHT22;26951;47.338;9.196;2022-07-04T11:16:02;25.90;55.90
41220;DHT22;26951;47.338;9.196;2022-07-04T11:18:47;26.20;54.00
41220;DHT22;26951;47.338;9.196;2022-07-04T11:21:31;26.30;53.50
41220;DHT22;26951;47.338;9.196;2022-07-04T11:24:17;26.40;54.20
41220;DHT22;26951;47.338;9.196;2022-07-04T11:27:02;26.60;54.30
41220;DHT22;26951;47.338;9.196;2022-07-04T11:29:51;26.60;53.10
41220;DHT22;26951;47.338;9.196;2022-07-04T11:32:37;26.60;52.80
41220;DHT22;26951;47.338;9.196;2022-07-04T11:35:22;26.60;54.00
41220;DHT22;26951;47.338;9.196;2022-07-04T11:38:06;26.80;54.60
41220;DHT22;26951;47.338;9.196;2022-07-04T11:40:50;26.90;52.40
41220;DHT22;26951;47.338;9.196;2022-07-04T11:43:54;26.80;51.30
41220;DHT22;26951;47.338;9.196;2022-07-04T11:47:04;26.50;54.90
41220;DHT22;26951;47.338;9.196;2022-07-04T11:49:57;26.50;55.00
41220;DHT22;26951;47.338;9.196;2022-07-04T11:52:44;26.60;55.40
41220;DHT22;26951;47.338;9.196;2022-07-04T11:55:28;26.80;58.60
41220;DHT22;26951;47.338;9.196;2022-07-04T11:58:13;26.90;54.40
41220;DHT22;26951;47.338;9.196;2022-07-04T12:00:57;26.90;56.70
41220;DHT22;26951;47.338;9.196;2022-07-04T12:03:41;27.00;54.80
41220;DHT22;26951;47.338;9.196;2022-07-04T12:06:25;27.00;56.60
41220;DHT22;26951;47.338;9.196;2022-07-04T12:09:10;27.10;55.20
41220;DHT22;26951;47.338;9.196;2022-07-04T12:11:58;27.10;56.40
41220;DHT22;26951;47.338;9.196;2022-07-04T12:17:43;27.20;52.20
41220;DHT22;26951;47.338;9.196;2022-07-04T12:20:27;27.20;52.90
41220;DHT22;26951;47.338;9.196;2022-07-04T12:23:12;27.20;51.50
41220;DHT22;26951;47.338;9.196;2022-07-04T12:25:57;27.10;54.70
41220;DHT22;26951;47.338;9.196;2022-07-04T12:28:41;27.10;54.80
41220;DHT22;26951;47.338;9.196;2022-07-04T12:34:23;27.30;55.40
41220;DHT22;26951;47.338;9.196;2022-07-04T12:37:15;27.50;54.90
41220;DHT22;26951;47.338;9.196;2022-07-04T12:40:09;27.60;53.90
41220;DHT22;26951;47.338;9.196;2022-07-04T12:42:57;27.60;52.40
41220;DHT22;26951;47.338;9.196;2022-07-04T12:45:43;27.70;52.40
41220;DHT22;26951;47.338;9.196;2022-07-04T12:48:28;27.60;52.10
41220;DHT22;26951;47.338;9.196;2022-07-04T12:51:19;27.50;50.70
41220;DHT22;26951;47.338;9.196;2022-07-04T12:54:09;27.40;50.40
41220;DHT22;26951;47.338;9.196;2022-07-04T12:57:06;27.30;51.40
41220;DHT22;26951;47.338;9.196;2022-07-04T12:59:50;27.20;51.40
41220;DHT22;26951;47.338;9.196;2022-07-04T13:02:34;27.10;52.60
41220;DHT22;26951;47.338;9.196;2022-07-04T13:05:19;27.00;51.70
41220;DHT22;26951;47.338;9.196;2022-07-04T13:08:04;27.10;54.00
41220;DHT22;26951;47.338;9.196;2022-07-04T13:10:48;27.00;54.40
41220;DHT22;26951;47.338;9.196;2022-07-04T13:13:32;26.90;54.50
41220;DHT22;26951;47.338;9.196;2022-07-04T13:16:15;26.90;55.90
41220;DHT22;26951;47.338;9.196;2022-07-04T13:19:00;27.00;54.80
41220;DHT22;26951;47.338;9.196;2022-07-04T13:21:44;26.80;54.10
41220;DHT22;26951;47.338;9.196;2022-07-04T13:24:29;26.80;54.10
41220;DHT22;26951;47.338;9.196;2022-07-04T13:27:13;26.80;57.60
41220;DHT22;26951;47.338;9.196;2022-07-04T13:29:57;27.00;56.70
41220;DHT22;26951;47.338;9.196;2022-07-04T13:32:41;27.10;53.40
41220;DHT22;26951;47.338;9.196;2022-07-04T13:35:25;27.00;51.20
41220;DHT22;26951;47.338;9.196;2022-07-04T13:38:09;26.90;53.40
41220;DHT22;26951;47.338;9.196;2022-07-04T13:40:53;26.90;54.00
41220;DHT22;26951;47.338;9.196;2022-07-04T13:43:40;26.60;52.90
41220;DHT22;26951;47.338;9.196;2022-07-04T13:46:25;26.60;53.90
41220;DHT22;26951;47.338;9.196;2022-07-04T13:49:09;26.60;53.00
41220;DHT22;26951;47.338;9.196;2022-07-04T13:51:53;26.50;52.20
41220;DHT22;26951;47.338;9.196;2022-07-04T13:54:37;26.40;51.60
41220;DHT22;26951;47.338;9.196;2022-07-04T13:57:21;26.30;51.50
41220;DHT22;26951;47.338;9.196;2022-07-04T14:00:06;26.20;51.90
41220;DHT22;26951;47.338;9.196;2022-07-04T14:02:50;26.20;51.70
41220;DHT22;26951;47.338;9.196;2022-07-04T14:05:35;26.00;52.40
41220;DHT22;26951;47.338;9.196;2022-07-04T14:08:19;25.70;52.30
41220;DHT22;26951;47.338;9.196;2022-07-04T14:11:03;25.50;53.50
41220;DHT22;26951;47.338;9.196;2022-07-04T14:13:47;25.40;53.30
41220;DHT22;26951;47.338;9.196;2022-07-04T14:16:32;25.20;52.10
41220;DHT22;26951;47.338;9.196;2022-07-04T14:19:16;25.00;52.80
41220;DHT22;26951;47.338;9.196;2022-07-04T14:22:01;24.90;53.40
41220;DHT22;26951;47.338;9.196;2022-07-04T14:24:45;24.80;54.00
41220;DHT22;26951;47.338;9.196;2022-07-04T14:27:29;24.60;54.20
41220;DHT22;26951;47.338;9.196;2022-07-04T14:30:13;24.60;54.70
41220;DHT22;26951;47.338;9.196;2022-07-04T14:32:57;24.50;55.10
41220;DHT22;26951;47.338;9.196;2022-07-04T14:35:41;24.40;54.80
41220;DHT22;26951;47.338;9.196;2022-07-04T14:38:25;24.40;53.80
41220;DHT22;26951;47.338;9.196;2022-07-04T14:41:10;24.30;54.90
41220;DHT22;26951;47.338;9.196;2022-07-04T14:43:54;24.20;55.30
41220;DHT22;26951;47.338;9.196;2022-07-04T14:46:39;24.10;55.70
41220;DHT22;26951;47.338;9.196;2022-07-04T14:49:23;24.00;57.20
41220;DHT22;26951;47.338;9.196;2022-07-04T14:52:07;23.80;57.20
41220;DHT22;26951;47.338;9.196;2022-07-04T14:54:51;23.70;57.00
41220;DHT22;26951;47.338;9.196;2022-07-04T14:57:35;23.50;56.80
41220;DHT22;26951;47.338;9.196;2022-07-04T15:00:19;23.40;58.70
41220;DHT22;26951;47.338;9.196;2022-07-04T15:03:03;23.20;56.20
41220;DHT22;26951;47.338;9.196;2022-07-04T15:05:48;23.10;60.20
41220;DHT22;26951;47.338;9.196;2022-07-04T15:08:32;22.90;61.40
41220;DHT22;26951;47.338;9.196;2022-07-04T15:11:16;22.60;62.70
41220;DHT22;26951;47.338;9.196;2022-07-04T15:14:01;22.40;64.00
41220;DHT22;26951;47.338;9.196;2022-07-04T15:16:45;22.20;63.30
41220;DHT22;26951;47.338;9.196;2022-07-04T15:19:29;21.90;64.00
41220;DHT22;26951;47.338;9.196;2022-07-04T15:22:13;21.70;63.50
41220;DHT22;26951;47.338;9.196;2022-07-04T15:25:16;21.50;63.50
41220;DHT22;26951;47.338;9.196;2022-07-04T15:28:00;21.20;63.40
41220;DHT22;26951;47.338;9.196;2022-07-04T15:30:44;21.00;64.60
41220;DHT22;26951;47.338;9.196;2022-07-04T15:33:29;20.80;65.90
41220;DHT22;26951;47.338;9.196;2022-07-04T15:36:14;20.60;65.90
41220;DHT22;26951;47.338;9.196;2022-07-04T15:38:58;20.30;65.50
41220;DHT22;26951;47.338;9.196;2022-07-04T15:41:43;20.00;66.40
41220;DHT22;26951;47.338;9.196;2022-07-04T15:44:28;19.70;66.10
41220;DHT22;26951;47.338;9.196;2022-07-04T15:47:12;19.50;68.10
41220;DHT22;26951;47.338;9.196;2022-07-04T15:49:57;19.40;68.40
41220;DHT22;26951;47.338;9.196;2022-07-04T15:52:41;19.20;67.90
41220;DHT22;26951;47.338;9.196;2022-07-04T15:55:26;19.20;64.40
41220;DHT22;26951;47.338;9.196;2022-07-04T15:58:11;19.00;67.40
41220;DHT22;26951;47.338;9.196;2022-07-04T16:00:55;18.90;66.60
41220;DHT22;26951;47.338;9.196;2022-07-04T16:03:39;18.90;67.00
41220;DHT22;26951;47.338;9.196;2022-07-04T16:06:24;18.80;66.60
41220;DHT22;26951;47.338;9.196;2022-07-04T16:09:08;18.70;65.40
41220;DHT22;26951;47.338;9.196;2022-07-04T16:11:52;18.70;67.00
41220;DHT22;26951;47.338;9.196;2022-07-04T16:14:37;18.60;67.90
41220;DHT22;26951;47.338;9.196;2022-07-04T16:17:21;18.60;68.40
41220;DHT22;26951;47.338;9.196;2022-07-04T16:20:06;18.60;68.80
41220;DHT22;26951;47.338;9.196;2022-07-04T16:22:50;18.50;68.80
41220;DHT22;26951;47.338;9.196;2022-07-04T16:25:35;18.50;68.50
41220;DHT22;26951;47.338;9.196;2022-07-04T16:28:19;18.40;69.40
41220;DHT22;26951;47.338;9.196;2022-07-04T16:31:03;18.30;70.40
41220;DHT22;26951;47.338;9.196;2022-07-04T16:33:48;18.10;70.10
41220;DHT22;26951;47.338;9.196;2022-07-04T16:36:32;18.20;71.00
41220;DHT22;26951;47.338;9.196;2022-07-04T16:39:16;18.20;69.40
41220;DHT22;26951;47.338;9.196;2022-07-04T16:42:00;18.20;73.10
41220;DHT22;26951;47.338;9.196;2022-07-04T16:44:46;18.30;72.60
41220;DHT22;26951;47.338;9.196;2022-07-04T16:47:30;18.40;72.40
41220;DHT22;26951;47.338;9.196;2022-07-04T16:50:14;18.50;69.90
41220;DHT22;26951;47.338;9.196;2022-07-04T16:52:58;18.70;69.60
41220;DHT22;26951;47.338;9.196;2022-07-04T16:55:43;18.80;71.70
41220;DHT22;26951;47.338;9.196;2022-07-04T16:58:31;19.00;71.50
41220;DHT22;26951;47.338;9.196;2022-07-04T17:01:15;19.20;71.90
41220;DHT22;26951;47.338;9.196;2022-07-04T17:04:00;19.30;71.70
41220;DHT22;26951;47.338;9.196;2022-07-04T17:06:44;19.30;70.30
41220;DHT22;26951;47.338;9.196;2022-07-04T17:09:28;19.40;68.70
41220;DHT22;26951;47.338;9.196;2022-07-04T17:12:12;19.60;67.00
41220;DHT22;26951;47.338;9.196;2022-07-04T17:14:57;19.60;66.80
41220;DHT22;26951;47.338;9.196;2022-07-04T17:17:43;19.60;68.30
41220;DHT22;26951;47.338;9.196;2022-07-04T17:20:28;19.60;67.90
41220;DHT22;26951;47.338;9.196;2022-07-04T17:23:12;19.60;66.20
41220;DHT22;26951;47.338;9.196;2022-07-04T17:25:57;19.60;67.20
41220;DHT22;26951;47.338;9.196;2022-07-04T17:28:44;19.60;67.90
41220;DHT22;26951;47.338;9.196;2022-07-04T17:31:28;19.50;68.60
41220;DHT22;26951;47.338;9.196;2022-07-04T17:34:13;19.50;66.70
41220;DHT22;26951;47.338;9.196;2022-07-04T17:36:58;19.40;66.20
41220;DHT22;26951;47.338;9.196;2022-07-04T17:39:43;19.30;68.00
41220;DHT22;26951;47.338;9.196;2022-07-04T17:42:27;19.30;68.80
41220;DHT22;26951;47.338;9.196;2022-07-04T17:45:11;19.30;67.40
41220;DHT22;26951;47.338;9.196;2022-07-04T17:47:56;19.20;67.70
41220;DHT22;26951;47.338;9.196;2022-07-04T17:50:40;19.10;68.90